createdAt,value
2022-08-03T00:00:29.042Z,16.09
2022-08-03T00:05:48.370Z,16.28
2022-08-03T00:10:55.867Z,16.38
2022-08-03T00:16:03.412Z,16.35
2022-08-03T00:21:10.888Z,16.36
2022-08-03T00:26:18.460Z,16.36
2022-08-03T00:31:25.899Z,16.3
2022-08-03T00:36:32.219Z,16.2
2022-08-03T00:41:41.206Z,16.3
2022-08-03T00:46:48.322Z,16.26
2022-08-03T00:51:55.763Z,16.04
2022-08-03T00:57:02.371Z,15.78
2022-08-03T01:02:10.292Z,15.53
2022-08-03T01:07:17.364Z,15.34
2022-08-03T01:12:25.429Z,15.34
2022-08-03T01:17:32.446Z,15.38
2022-08-03T01:22:40.219Z,15.32
2022-08-03T01:27:47.983Z,15.32
2022-08-03T01:32:54.897Z,15.32
2022-08-03T01:38:02.460Z,15.29
2022-08-03T01:43:11.353Z,15.11
2022-08-03T01:48:19.660Z,15.2
2022-08-03T01:53:28.273Z,15.26
2022-08-03T01:58:35.133Z,15.14
2022-08-03T02:03:42.904Z,15.08
2022-08-03T02:08:50.134Z,15.03
2022-08-03T02:13:56.727Z,15.01
2022-08-03T02:19:04.532Z,14.97
2022-08-03T02:24:11.761Z,14.94
2022-08-03T02:29:19.642Z,14.86
2022-08-03T02:34:27.041Z,14.86
2022-08-03T02:39:34.823Z,14.71
2022-08-03T02:44:41.840Z,14.76
2022-08-03T02:49:48.356Z,14.66
2022-08-03T02:54:56.213Z,14.63
2022-08-03T03:00:04.053Z,14.7
2022-08-03T03:05:11.274Z,14.72
2022-08-03T03:10:18.404Z,14.64
2022-08-03T03:15:31.408Z,14.5
2022-08-03T03:20:38.361Z,14.46
2022-08-03T03:25:45.908Z,14.46
2022-08-03T03:30:53.713Z,14.52
2022-08-03T03:36:01.409Z,14.61
2022-08-03T03:41:08.061Z,14.52
2022-08-03T03:46:16.008Z,14.61
2022-08-03T03:51:23.941Z,14.61
2022-08-03T03:56:30.968Z,14.69
2022-08-03T04:01:38.799Z,14.84
2022-08-03T04:06:51.094Z,16.48
2022-08-03T04:11:59.192Z,18.73
2022-08-03T04:17:07.279Z,21.12
2022-08-03T04:22:15.211Z,23.46
2022-08-03T04:27:23.910Z,25.43
2022-08-03T04:32:31.924Z,26.82
2022-08-03T04:37:40.143Z,27.12
2022-08-03T04:42:47.248Z,26.86
2022-08-03T04:47:54.873Z,26.93
2022-08-03T04:53:01.647Z,27.12
2022-08-03T04:58:11.277Z,27.39
2022-08-03T05:03:18.606Z,27.62
2022-08-03T05:08:25.381Z,28.04
2022-08-03T05:13:33.012Z,27.96
2022-08-03T05:18:39.601Z,29.66
2022-08-03T05:23:46.774Z,30.65
2022-08-03T05:28:55.255Z,31.42
2022-08-03T05:35:34.280Z,32.67
2022-08-03T05:40:40.660Z,32.69
2022-08-03T05:45:49.085Z,32.98
2022-08-03T05:50:56.249Z,33.62
2022-08-03T05:56:03.457Z,33.1
2022-08-03T06:01:11.574Z,32.9
2022-08-03T06:06:19.097Z,31.8
2022-08-03T06:11:26.305Z,30.39
2022-08-03T06:16:34.138Z,30.1
2022-08-03T06:21:41.368Z,30.04
2022-08-03T06:26:49.646Z,30.16
2022-08-03T06:31:57.303Z,29.12
2022-08-03T06:37:05.337Z,28.26
2022-08-03T06:42:13.410Z,27.8
2022-08-03T06:47:21.730Z,26.86
2022-08-03T06:52:28.999Z,26.34
2022-08-03T06:57:36.792Z,25.96
2022-08-03T07:02:44.957Z,25.8
2022-08-03T07:07:52.734Z,25.84
2022-08-03T07:13:00.874Z,26.21
2022-08-03T07:18:08.852Z,26.21
2022-08-03T07:23:16.720Z,26.26
2022-08-03T07:28:25.689Z,26.38
2022-08-03T07:34:13.390Z,26.43
2022-08-03T07:39:19.916Z,26.29
2022-08-03T07:44:28.350Z,26.48
2022-08-03T07:49:35.583Z,26.47
2022-08-03T07:54:44.565Z,26.64
2022-08-03T07:59:54.252Z,26.92
2022-08-03T08:05:02.881Z,27.08
2022-08-03T08:10:11.282Z,27.23
2022-08-03T08:15:18.615Z,27.64
2022-08-03T08:20:25.873Z,27.58
2022-08-03T08:25:34.074Z,27.56
2022-08-03T08:30:41.954Z,27.62
2022-08-03T08:35:51.117Z,27.69
2022-08-03T08:40:58.437Z,28.02
2022-08-03T08:46:05.931Z,28.19
2022-08-03T08:51:13.847Z,28.51
2022-08-03T08:56:22.160Z,28.6
2022-08-03T09:01:29.837Z,28.66
2022-08-03T09:06:38.309Z,28.69
2022-08-03T09:11:45.707Z,28.81
2022-08-03T09:16:52.051Z,28.94
2022-08-03T09:21:59.427Z,29.03
2022-08-03T09:27:06.969Z,29.3
2022-08-03T09:32:23.125Z,29.36
2022-08-03T09:37:31.071Z,29.73
2022-08-03T09:42:37.731Z,29.99
2022-08-03T09:47:44.842Z,30.22
2022-08-03T09:52:56.333Z,30.33
2022-08-03T09:58:03.767Z,30.6
2022-08-03T10:03:11.610Z,30.62
2022-08-03T10:08:19.839Z,30.84
2022-08-03T10:13:27.503Z,31.1
2022-08-03T10:18:34.665Z,31.54
2022-08-03T10:23:43.075Z,31.6
2022-08-03T10:28:51.021Z,31.65
2022-08-03T10:33:58.621Z,31.44
2022-08-03T10:39:05.918Z,31.46
2022-08-03T10:44:13.016Z,31.48
2022-08-03T10:49:20.244Z,31.62
2022-08-03T10:54:28.012Z,31.97
2022-08-03T10:59:35.276Z,32.38
2022-08-03T11:04:43.610Z,32.82
2022-08-03T11:09:51.577Z,32.92
2022-08-03T11:14:58.970Z,33.29
2022-08-03T11:20:07.111Z,33.76
2022-08-03T11:25:13.819Z,33.54
2022-08-03T11:30:21.657Z,33.29
2022-08-03T11:35:28.865Z,33.24
2022-08-03T11:40:36.054Z,33.24
2022-08-03T11:45:42.613Z,33.12
2022-08-03T11:50:51.413Z,33.03
2022-08-03T11:55:59.103Z,32.92
2022-08-03T12:01:06.550Z,32.9
2022-08-03T12:06:13.924Z,33.42
2022-08-03T12:11:20.536Z,33.28
2022-08-03T12:16:27.958Z,33.16
2022-08-03T12:21:36.719Z,33.2
2022-08-03T12:27:34.676Z,33.42
2022-08-03T12:32:41.203Z,33.61
2022-08-03T12:37:49.657Z,33.35
2022-08-03T12:42:56.859Z,33.22
2022-08-03T12:48:05.048Z,33.44
2022-08-03T12:53:12.539Z,33.38
2022-08-03T12:58:21.057Z,33.52
2022-08-03T13:03:29.716Z,33.43
2022-08-03T13:08:38.144Z,33.63
2022-08-03T13:13:45.817Z,33.64
2022-08-03T13:18:54.499Z,33.94
2022-08-03T13:24:02.379Z,33.97
2022-08-03T13:29:08.691Z,33.96
2022-08-03T13:34:15.889Z,34.18
2022-08-03T13:39:24.333Z,34.3
2022-08-03T13:44:31.940Z,34.46
2022-08-03T13:49:39.464Z,34.34
2022-08-03T13:54:46.561Z,34.52
2022-08-03T13:59:53.855Z,34.52
2022-08-03T14:05:02.081Z,34.42
2022-08-03T14:10:10.344Z,34.3
2022-08-03T14:15:18.307Z,34.42
2022-08-03T14:20:26.962Z,34.88
2022-08-03T14:25:34.694Z,34.57
2022-08-03T14:30:41.496Z,34.38
2022-08-03T14:35:48.964Z,34.2
2022-08-03T14:40:56.963Z,34.3
2022-08-03T14:46:04.903Z,34.07
2022-08-03T14:51:13.091Z,34.22
2022-08-03T14:56:21.213Z,34.24
2022-08-03T15:01:44.421Z,34.38
2022-08-03T15:06:52.363Z,34.42
2022-08-03T15:12:00.205Z,34.12
2022-08-03T15:17:14.706Z,34.19
2022-08-03T15:22:23.447Z,34.21
2022-08-03T15:27:30.781Z,33.79
2022-08-03T15:32:37.416Z,33.62
2022-08-03T15:38:01.141Z,33.43
2022-08-03T15:43:08.845Z,33.38
2022-08-03T15:48:16.888Z,33.29
2022-08-03T15:53:24.379Z,33.21
2022-08-03T15:58:30.655Z,33.34
2022-08-03T16:03:38.006Z,33.18
2022-08-03T16:08:45.059Z,32.71
2022-08-03T16:13:53.213Z,32.61
2022-08-03T16:19:00.091Z,32.84
2022-08-03T16:24:08.178Z,33.13
2022-08-03T16:29:16.246Z,32.48
2022-08-03T16:34:22.933Z,32.44
2022-08-03T16:39:31.173Z,32.22
2022-08-03T16:44:39.854Z,31.9
2022-08-03T16:49:47.490Z,31.58
2022-08-03T16:54:53.663Z,31.26
2022-08-03T17:00:00.215Z,31.19
2022-08-03T17:05:07.414Z,30.2
2022-08-03T17:10:14.870Z,29.18
2022-08-03T17:15:23.434Z,28.56
2022-08-03T17:20:30.961Z,28.22
2022-08-03T17:25:37.495Z,27.88
2022-08-03T17:30:45.968Z,27.47
2022-08-03T17:35:53.824Z,27.2
2022-08-03T17:41:01.715Z,27.0
2022-08-03T17:46:09.090Z,26.66
2022-08-03T17:51:16.795Z,26.29
2022-08-03T17:56:23.895Z,25.88
2022-08-03T18:01:31.877Z,25.32
2022-08-03T18:06:39.448Z,24.58
2022-08-03T18:11:46.858Z,23.99
2022-08-03T18:16:54.220Z,23.62
2022-08-03T18:22:01.474Z,23.14
2022-08-03T18:27:10.083Z,22.61
2022-08-03T18:32:17.490Z,22.1
2022-08-03T18:37:24.123Z,21.84
2022-08-03T18:42:31.691Z,21.62
2022-08-03T18:47:37.828Z,21.26
2022-08-03T18:52:46.003Z,21.16
2022-08-03T18:57:53.536Z,20.98
2022-08-03T19:03:01.275Z,20.72
2022-08-03T19:08:07.933Z,20.38
2022-08-03T19:13:15.122Z,20.17
2022-08-03T19:18:22.997Z,20.1
2022-08-03T19:23:29.990Z,19.98
2022-08-03T19:28:37.691Z,19.67
2022-08-03T19:33:45.181Z,19.58
2022-08-03T19:38:52.321Z,19.76
2022-08-03T19:43:59.547Z,19.52
2022-08-03T19:49:06.779Z,19.21
2022-08-03T19:54:14.265Z,18.83
2022-08-03T19:59:22.971Z,18.61
2022-08-03T20:04:30.163Z,18.41
2022-08-03T20:09:37.512Z,18.32
2022-08-03T20:14:46.745Z,18.14
2022-08-03T20:19:54.980Z,17.96
2022-08-03T20:25:03.280Z,17.76
2022-08-03T20:30:11.859Z,17.76
2022-08-03T20:35:20.975Z,17.78
2022-08-03T20:40:29.018Z,17.62
2022-08-03T20:45:36.479Z,17.57
2022-08-03T20:50:44.484Z,17.44
2022-08-03T20:55:52.285Z,17.3
2022-08-03T21:01:00.081Z,17.17
2022-08-03T21:06:07.115Z,17.02
2022-08-03T21:11:15.675Z,16.83
2022-08-03T21:16:22.634Z,16.75
2022-08-03T21:21:30.041Z,16.69
2022-08-03T21:26:37.597Z,16.61
2022-08-03T21:31:44.646Z,16.67
2022-08-03T21:36:52.087Z,16.61
2022-08-03T21:42:00.409Z,16.4
2022-08-03T21:47:10.505Z,16.21
2022-08-03T21:52:18.731Z,16.11
2022-08-03T21:57:27.147Z,16.0
2022-08-03T22:02:35.463Z,16.08
2022-08-03T22:07:41.658Z,16.09
2022-08-03T22:12:49.462Z,16.22
2022-08-03T22:17:56.698Z,16.25
2022-08-03T22:23:04.412Z,16.34
2022-08-03T22:28:12.487Z,16.2
2022-08-03T22:33:20.424Z,15.94
2022-08-03T22:39:05.814Z,15.84
2022-08-03T22:44:13.491Z,15.76
2022-08-03T22:49:22.387Z,15.66
2022-08-03T22:54:31.284Z,15.62
2022-08-03T22:59:39.100Z,15.57
2022-08-03T23:04:46.433Z,15.48
2022-08-03T23:09:53.957Z,15.44
2022-08-03T23:15:00.977Z,15.46
2022-08-03T23:20:08.746Z,15.4
2022-08-03T23:25:15.102Z,15.32
2022-08-03T23:30:22.936Z,15.28
2022-08-03T23:35:31.843Z,15.29
2022-08-03T23:40:38.616Z,15.25
2022-08-03T23:45:46.259Z,15.32
2022-08-03T23:50:54.239Z,15.39
2022-08-03T23:56:02.006Z,15.56
